sensor_id;sensor_type;location;lat;lon;timestamp;P1;durP1;ratioP1;P2;durP2;ratioP2
9970;SDS011;5026;51.494;11.974;2023-04-29T00:01:20;18.37;;;12.80;;
9970;SDS011;5026;51.494;11.974;2023-04-29T00:03:46;17.70;;;12.53;;
9970;SDS011;5026;51.494;11.974;2023-04-29T00:06:13;17.67;;;13.77;;
9970;SDS011;5026;51.494;11.974;2023-04-29T00:08:40;21.83;;;13.97;;
9970;SDS011;5026;51.494;11.974;2023-04-29T00:11:08;19.03;;;14.17;;
9970;SDS011;5026;51.494;11.974;2023-04-29T00:13:35;19.53;;;14.40;;
9970;SDS011;5026;51.494;11.974;2023-04-29T00:16:05;20.47;;;14.83;;
9970;SDS011;5026;51.494;11.974;2023-04-29T00:18:34;19.40;;;13.20;;
9970;SDS011;5026;51.494;11.974;2023-04-29T00:21:01;20.67;;;14.87;;
9970;SDS011;5026;51.494;11.974;2023-04-29T00:23:30;20.33;;;14.17;;
9970;SDS011;5026;51.494;11.974;2023-04-29T00:25:57;19.23;;;14.20;;
9970;SDS011;5026;51.494;11.974;2023-04-29T00:28:23;20.70;;;13.93;;
9970;SDS011;5026;51.494;11.974;2023-04-29T00:30:50;21.60;;;13.80;;
9970;SDS011;5026;51.494;11.974;2023-04-29T00:33:19;20.57;;;13.40;;
9970;SDS011;5026;51.494;11.974;2023-04-29T00:35:46;20.90;;;13.37;;
9970;SDS011;5026;51.494;11.974;2023-04-29T00:38:13;17.73;;;12.83;;
9970;SDS011;5026;51.494;11.974;2023-04-29T00:40:40;16.50;;;12.37;;
9970;SDS011;5026;51.494;11.974;2023-04-29T00:43:08;20.80;;;13.97;;
9970;SDS011;5026;51.494;11.974;2023-04-29T00:45:34;17.30;;;12.90;;
9970;SDS011;5026;51.494;11.974;2023-04-29T00:48:01;19.70;;;13.33;;
9970;SDS011;5026;51.494;11.974;2023-04-29T00:50:30;19.87;;;14.27;;
9970;SDS011;5026;51.494;11.974;2023-04-29T00:52:57;21.37;;;14.37;;
9970;SDS011;5026;51.494;11.974;2023-04-29T00:55:24;21.03;;;14.33;;
9970;SDS011;5026;51.494;11.974;2023-04-29T00:57:52;20.43;;;14.37;;
9970;SDS011;5026;51.494;11.974;2023-04-29T01:00:19;21.23;;;14.63;;
9970;SDS011;5026;51.494;11.974;2023-04-29T01:02:46;20.60;;;14.00;;
9970;SDS011;5026;51.494;11.974;2023-04-29T01:05:14;21.23;;;14.47;;
9970;SDS011;5026;51.494;11.974;2023-04-29T01:07:44;20.67;;;13.57;;
9970;SDS011;5026;51.494;11.974;2023-04-29T01:10:24;22.63;;;14.63;;
9970;SDS011;5026;51.494;11.974;2023-04-29T01:12:56;21.27;;;13.70;;
9970;SDS011;5026;51.494;11.974;2023-04-29T01:15:31;23.80;;;14.40;;
9970;SDS011;5026;51.494;11.974;2023-04-29T01:18:04;20.80;;;14.53;;
9970;SDS011;5026;51.494;11.974;2023-04-29T01:20:34;17.37;;;13.47;;
9970;SDS011;5026;51.494;11.974;2023-04-29T01:23:04;21.17;;;14.23;;
9970;SDS011;5026;51.494;11.974;2023-04-29T01:25:32;21.80;;;14.53;;
9970;SDS011;5026;51.494;11.974;2023-04-29T01:28:01;23.47;;;14.50;;
9970;SDS011;5026;51.494;11.974;2023-04-29T01:30:39;21.23;;;14.30;;
9970;SDS011;5026;51.494;11.974;2023-04-29T01:33:13;20.07;;;14.40;;
9970;SDS011;5026;51.494;11.974;2023-04-29T01:35:48;21.63;;;14.37;;
9970;SDS011;5026;51.494;11.974;2023-04-29T01:38:25;20.33;;;14.37;;
9970;SDS011;5026;51.494;11.974;2023-04-29T01:41:05;23.10;;;15.37;;
9970;SDS011;5026;51.494;11.974;2023-04-29T01:43:38;23.50;;;15.53;;
9970;SDS011;5026;51.494;11.974;2023-04-29T01:46:07;20.03;;;14.40;;
9970;SDS011;5026;51.494;11.974;2023-04-29T01:48:35;25.23;;;15.87;;
9970;SDS011;5026;51.494;11.974;2023-04-29T01:51:02;20.13;;;14.47;;
9970;SDS011;5026;51.494;11.974;2023-04-29T01:53:31;23.20;;;14.77;;
9970;SDS011;5026;51.494;11.974;2023-04-29T01:55:58;23.50;;;14.73;;
9970;SDS011;5026;51.494;11.974;2023-04-29T01:58:26;20.97;;;15.00;;
9970;SDS011;5026;51.494;11.974;2023-04-29T02:00:53;22.17;;;14.67;;
9970;SDS011;5026;51.494;11.974;2023-04-29T02:03:21;20.53;;;13.93;;
9970;SDS011;5026;51.494;11.974;2023-04-29T02:05:47;23.70;;;14.33;;
9970;SDS011;5026;51.494;11.974;2023-04-29T02:08:15;22.00;;;15.03;;
9970;SDS011;5026;51.494;11.974;2023-04-29T02:10:50;22.77;;;15.57;;
9970;SDS011;5026;51.494;11.974;2023-04-29T02:13:17;22.67;;;15.40;;
9970;SDS011;5026;51.494;11.974;2023-04-29T02:15:46;20.77;;;14.20;;
9970;SDS011;5026;51.494;11.974;2023-04-29T02:18:13;20.50;;;13.83;;
9970;SDS011;5026;51.494;11.974;2023-04-29T02:20:40;23.73;;;14.70;;
9970;SDS011;5026;51.494;11.974;2023-04-29T02:23:07;23.20;;;15.07;;
9970;SDS011;5026;51.494;11.974;2023-04-29T02:25:34;22.43;;;15.70;;
9970;SDS011;5026;51.494;11.974;2023-04-29T02:28:01;23.67;;;15.53;;
9970;SDS011;5026;51.494;11.974;2023-04-29T02:30:28;26.73;;;17.40;;
9970;SDS011;5026;51.494;11.974;2023-04-29T02:32:56;28.20;;;17.67;;
9970;SDS011;5026;51.494;11.974;2023-04-29T02:35:23;25.73;;;15.90;;
9970;SDS011;5026;51.494;11.974;2023-04-29T02:37:50;27.60;;;17.50;;
9970;SDS011;5026;51.494;11.974;2023-04-29T02:40:17;27.43;;;17.57;;
9970;SDS011;5026;51.494;11.974;2023-04-29T02:42:44;25.43;;;17.07;;
9970;SDS011;5026;51.494;11.974;2023-04-29T02:45:11;29.37;;;18.17;;
9970;SDS011;5026;51.494;11.974;2023-04-29T02:47:38;30.53;;;18.77;;
9970;SDS011;5026;51.494;11.974;2023-04-29T02:50:07;29.93;;;18.77;;
9970;SDS011;5026;51.494;11.974;2023-04-29T02:52:34;29.17;;;17.73;;
9970;SDS011;5026;51.494;11.974;2023-04-29T02:55:01;31.30;;;17.67;;
9970;SDS011;5026;51.494;11.974;2023-04-29T02:57:28;26.83;;;17.50;;
9970;SDS011;5026;51.494;11.974;2023-04-29T02:59:56;30.80;;;18.17;;
9970;SDS011;5026;51.494;11.974;2023-04-29T03:02:23;29.07;;;18.83;;
9970;SDS011;5026;51.494;11.974;2023-04-29T03:04:50;27.67;;;18.20;;
9970;SDS011;5026;51.494;11.974;2023-04-29T03:07:18;29.50;;;17.97;;
9970;SDS011;5026;51.494;11.974;2023-04-29T03:09:45;30.83;;;18.10;;
9970;SDS011;5026;51.494;11.974;2023-04-29T03:12:12;30.00;;;18.10;;
9970;SDS011;5026;51.494;11.974;2023-04-29T03:14:40;31.07;;;18.07;;
9970;SDS011;5026;51.494;11.974;2023-04-29T03:17:07;32.30;;;18.37;;
9970;SDS011;5026;51.494;11.974;2023-04-29T03:19:34;29.80;;;17.83;;
9970;SDS011;5026;51.494;11.974;2023-04-29T03:22:01;31.57;;;18.53;;
9970;SDS011;5026;51.494;11.974;2023-04-29T03:24:29;28.23;;;17.77;;
9970;SDS011;5026;51.494;11.974;2023-04-29T03:26:56;30.00;;;17.73;;
9970;SDS011;5026;51.494;11.974;2023-04-29T03:29:25;27.80;;;17.23;;
9970;SDS011;5026;51.494;11.974;2023-04-29T03:31:52;27.97;;;17.67;;
9970;SDS011;5026;51.494;11.974;2023-04-29T03:34:20;28.80;;;16.93;;
9970;SDS011;5026;51.494;11.974;2023-04-29T03:36:48;28.77;;;16.77;;
9970;SDS011;5026;51.494;11.974;2023-04-29T03:39:16;27.77;;;17.57;;
9970;SDS011;5026;51.494;11.974;2023-04-29T03:41:44;27.73;;;17.13;;
9970;SDS011;5026;51.494;11.974;2023-04-29T03:44:12;27.63;;;17.37;;
9970;SDS011;5026;51.494;11.974;2023-04-29T03:46:39;26.23;;;16.60;;
9970;SDS011;5026;51.494;11.974;2023-04-29T03:49:07;27.40;;;16.43;;
9970;SDS011;5026;51.494;11.974;2023-04-29T03:51:33;27.20;;;16.63;;
9970;SDS011;5026;51.494;11.974;2023-04-29T03:54:01;26.90;;;16.67;;
9970;SDS011;5026;51.494;11.974;2023-04-29T03:56:28;25.20;;;16.60;;
9970;SDS011;5026;51.494;11.974;2023-04-29T03:58:56;25.73;;;16.37;;
9970;SDS011;5026;51.494;11.974;2023-04-29T04:01:23;24.17;;;15.70;;
9970;SDS011;5026;51.494;11.974;2023-04-29T04:03:50;22.33;;;14.63;;
9970;SDS011;5026;51.494;11.974;2023-04-29T04:06:17;25.93;;;15.83;;
9970;SDS011;5026;51.494;11.974;2023-04-29T04:08:44;25.03;;;15.40;;
9970;SDS011;5026;51.494;11.974;2023-04-29T04:11:11;24.73;;;14.97;;
9970;SDS011;5026;51.494;11.974;2023-04-29T04:13:39;24.40;;;15.00;;
9970;SDS011;5026;51.494;11.974;2023-04-29T04:16:07;23.33;;;13.77;;
9970;SDS011;5026;51.494;11.974;2023-04-29T04:18:35;24.60;;;14.27;;
9970;SDS011;5026;51.494;11.974;2023-04-29T04:21:05;25.17;;;14.57;;
9970;SDS011;5026;51.494;11.974;2023-04-29T04:23:32;24.17;;;14.20;;
9970;SDS011;5026;51.494;11.974;2023-04-29T04:25:59;23.63;;;14.50;;
9970;SDS011;5026;51.494;11.974;2023-04-29T04:28:26;25.13;;;14.07;;
9970;SDS011;5026;51.494;11.974;2023-04-29T04:30:53;22.60;;;14.03;;
9970;SDS011;5026;51.494;11.974;2023-04-29T04:33:22;23.67;;;14.30;;
9970;SDS011;5026;51.494;11.974;2023-04-29T04:35:50;23.00;;;14.17;;
9970;SDS011;5026;51.494;11.974;2023-04-29T04:38:16;23.77;;;14.40;;
9970;SDS011;5026;51.494;11.974;2023-04-29T04:40:44;23.03;;;13.80;;
9970;SDS011;5026;51.494;11.974;2023-04-29T04:43:11;22.87;;;13.57;;
9970;SDS011;5026;51.494;11.974;2023-04-29T04:45:37;22.17;;;13.50;;
9970;SDS011;5026;51.494;11.974;2023-04-29T04:48:05;22.58;;;13.65;;
9970;SDS011;5026;51.494;11.974;2023-04-29T04:50:33;21.13;;;13.25;;
9970;SDS011;5026;51.494;11.974;2023-04-29T04:53:00;17.58;;;11.65;;
9970;SDS011;5026;51.494;11.974;2023-04-29T04:55:27;17.20;;;11.55;;
9970;SDS011;5026;51.494;11.974;2023-04-29T04:57:55;17.80;;;11.40;;
9970;SDS011;5026;51.494;11.974;2023-04-29T05:00:22;17.10;;;10.77;;
9970;SDS011;5026;51.494;11.974;2023-04-29T05:02:49;17.52;;;10.30;;
9970;SDS011;5026;51.494;11.974;2023-04-29T05:05:16;19.83;;;11.27;;
9970;SDS011;5026;51.494;11.974;2023-04-29T05:07:44;15.88;;;9.90;;
9970;SDS011;5026;51.494;11.974;2023-04-29T05:10:11;14.45;;;9.75;;
9970;SDS011;5026;51.494;11.974;2023-04-29T05:12:39;16.38;;;10.00;;
9970;SDS011;5026;51.494;11.974;2023-04-29T05:15:06;22.92;;;10.48;;
9970;SDS011;5026;51.494;11.974;2023-04-29T05:17:33;16.52;;;10.35;;
9970;SDS011;5026;51.494;11.974;2023-04-29T05:20:00;16.42;;;10.80;;
9970;SDS011;5026;51.494;11.974;2023-04-29T05:22:28;16.43;;;11.00;;
9970;SDS011;5026;51.494;11.974;2023-04-29T05:24:56;15.38;;;10.00;;
9970;SDS011;5026;51.494;11.974;2023-04-29T05:27:28;16.15;;;10.68;;
9970;SDS011;5026;51.494;11.974;2023-04-29T05:29:55;17.00;;;11.02;;
9970;SDS011;5026;51.494;11.974;2023-04-29T05:32:22;17.52;;;10.35;;
9970;SDS011;5026;51.494;11.974;2023-04-29T05:34:49;16.38;;;11.13;;
9970;SDS011;5026;51.494;11.974;2023-04-29T05:37:16;18.42;;;11.63;;
9970;SDS011;5026;51.494;11.974;2023-04-29T05:39:43;18.37;;;11.43;;
9970;SDS011;5026;51.494;11.974;2023-04-29T05:42:12;17.67;;;11.55;;
9970;SDS011;5026;51.494;11.974;2023-04-29T05:44:39;14.77;;;10.02;;
9970;SDS011;5026;51.494;11.974;2023-04-29T05:47:05;16.42;;;9.75;;
9970;SDS011;5026;51.494;11.974;2023-04-29T05:49:32;13.75;;;9.05;;
9970;SDS011;5026;51.494;11.974;2023-04-29T05:51:59;14.57;;;9.20;;
9970;SDS011;5026;51.494;11.974;2023-04-29T05:54:30;13.63;;;8.82;;
9970;SDS011;5026;51.494;11.974;2023-04-29T05:56:57;12.07;;;8.60;;
9970;SDS011;5026;51.494;11.974;2023-04-29T05:59:27;12.27;;;8.27;;
9970;SDS011;5026;51.494;11.974;2023-04-29T06:01:55;14.18;;;9.23;;
9970;SDS011;5026;51.494;11.974;2023-04-29T06:04:22;14.50;;;9.27;;
9970;SDS011;5026;51.494;11.974;2023-04-29T06:06:49;12.82;;;8.20;;
9970;SDS011;5026;51.494;11.974;2023-04-29T06:09:16;12.98;;;8.95;;
9970;SDS011;5026;51.494;11.974;2023-04-29T06:11:44;14.60;;;8.88;;
9970;SDS011;5026;51.494;11.974;2023-04-29T06:14:11;13.82;;;8.70;;
9970;SDS011;5026;51.494;11.974;2023-04-29T06:16:40;14.48;;;9.10;;
9970;SDS011;5026;51.494;11.974;2023-04-29T06:19:07;14.10;;;8.98;;
9970;SDS011;5026;51.494;11.974;2023-04-29T06:21:33;12.63;;;8.63;;
9970;SDS011;5026;51.494;11.974;2023-04-29T06:24:00;12.82;;;8.32;;
9970;SDS011;5026;51.494;11.974;2023-04-29T06:26:27;12.13;;;7.90;;
9970;SDS011;5026;51.494;11.974;2023-04-29T06:28:56;12.18;;;7.95;;
9970;SDS011;5026;51.494;11.974;2023-04-29T06:31:24;12.35;;;7.88;;
9970;SDS011;5026;51.494;11.974;2023-04-29T06:33:53;10.85;;;7.97;;
9970;SDS011;5026;51.494;11.974;2023-04-29T06:36:20;10.88;;;7.78;;
9970;SDS011;5026;51.494;11.974;2023-04-29T06:38:47;11.73;;;7.40;;
9970;SDS011;5026;51.494;11.974;2023-04-29T06:41:14;11.95;;;7.85;;
9970;SDS011;5026;51.494;11.974;2023-04-29T06:43:41;9.32;;;6.80;;
9970;SDS011;5026;51.494;11.974;2023-04-29T06:46:08;11.43;;;7.30;;
9970;SDS011;5026;51.494;11.974;2023-04-29T06:48:35;13.93;;;7.65;;
9970;SDS011;5026;51.494;11.974;2023-04-29T06:51:03;11.15;;;7.28;;
9970;SDS011;5026;51.494;11.974;2023-04-29T06:53:31;11.23;;;7.53;;
9970;SDS011;5026;51.494;11.974;2023-04-29T06:55:57;11.07;;;7.18;;
9970;SDS011;5026;51.494;11.974;2023-04-29T06:58:24;11.38;;;7.35;;
9970;SDS011;5026;51.494;11.974;2023-04-29T07:00:51;10.18;;;6.75;;
9970;SDS011;5026;51.494;11.974;2023-04-29T07:03:18;11.32;;;7.53;;
9970;SDS011;5026;51.494;11.974;2023-04-29T07:05:45;12.15;;;7.90;;
9970;SDS011;5026;51.494;11.974;2023-04-29T07:08:14;13.50;;;8.30;;
9970;SDS011;5026;51.494;11.974;2023-04-29T07:10:41;12.82;;;8.55;;
9970;SDS011;5026;51.494;11.974;2023-04-29T07:13:07;14.85;;;8.95;;
9970;SDS011;5026;51.494;11.974;2023-04-29T07:15:35;12.50;;;8.82;;
9970;SDS011;5026;51.494;11.974;2023-04-29T07:18:02;13.95;;;9.60;;
9970;SDS011;5026;51.494;11.974;2023-04-29T07:20:30;13.65;;;9.77;;
9970;SDS011;5026;51.494;11.974;2023-04-29T07:22:57;13.75;;;9.77;;
9970;SDS011;5026;51.494;11.974;2023-04-29T07:25:26;16.05;;;11.15;;
9970;SDS011;5026;51.494;11.974;2023-04-29T07:27:53;18.30;;;11.68;;
9970;SDS011;5026;51.494;11.974;2023-04-29T07:30:21;16.85;;;11.32;;
9970;SDS011;5026;51.494;11.974;2023-04-29T07:32:49;16.88;;;12.68;;
9970;SDS011;5026;51.494;11.974;2023-04-29T07:35:16;16.83;;;12.35;;
9970;SDS011;5026;51.494;11.974;2023-04-29T07:37:43;18.75;;;12.95;;
9970;SDS011;5026;51.494;11.974;2023-04-29T07:40:10;17.35;;;12.30;;
9970;SDS011;5026;51.494;11.974;2023-04-29T07:42:38;18.55;;;12.63;;
9970;SDS011;5026;51.494;11.974;2023-04-29T07:45:05;19.92;;;11.35;;
9970;SDS011;5026;51.494;11.974;2023-04-29T07:47:33;16.98;;;10.70;;
9970;SDS011;5026;51.494;11.974;2023-04-29T07:50:00;17.25;;;11.45;;
9970;SDS011;5026;51.494;11.974;2023-04-29T07:52:27;15.38;;;10.98;;
9970;SDS011;5026;51.494;11.974;2023-04-29T07:54:54;15.30;;;10.35;;
9970;SDS011;5026;51.494;11.974;2023-04-29T07:57:21;16.95;;;10.57;;
9970;SDS011;5026;51.494;11.974;2023-04-29T07:59:51;13.68;;;10.35;;
9970;SDS011;5026;51.494;11.974;2023-04-29T08:02:18;15.60;;;10.68;;
9970;SDS011;5026;51.494;11.974;2023-04-29T08:04:45;13.68;;;9.85;;
9970;SDS011;5026;51.494;11.974;2023-04-29T08:07:12;13.05;;;9.77;;
9970;SDS011;5026;51.494;11.974;2023-04-29T08:09:39;14.77;;;9.93;;
9970;SDS011;5026;51.494;11.974;2023-04-29T08:12:07;14.50;;;9.15;;
9970;SDS011;5026;51.494;11.974;2023-04-29T08:14:34;14.38;;;8.93;;
9970;SDS011;5026;51.494;11.974;2023-04-29T08:17:02;12.32;;;8.52;;
9970;SDS011;5026;51.494;11.974;2023-04-29T08:19:29;11.27;;;8.27;;
9970;SDS011;5026;51.494;11.974;2023-04-29T08:21:56;10.20;;;7.80;;
9970;SDS011;5026;51.494;11.974;2023-04-29T08:24:25;11.40;;;8.18;;
9970;SDS011;5026;51.494;11.974;2023-04-29T08:26:53;10.75;;;7.75;;
9970;SDS011;5026;51.494;11.974;2023-04-29T08:29:20;10.48;;;8.05;;
9970;SDS011;5026;51.494;11.974;2023-04-29T08:31:46;15.07;;;8.95;;
9970;SDS011;5026;51.494;11.974;2023-04-29T08:34:15;11.32;;;8.43;;
9970;SDS011;5026;51.494;11.974;2023-04-29T08:36:42;12.90;;;8.82;;
9970;SDS011;5026;51.494;11.974;2023-04-29T08:39:09;10.88;;;8.20;;
9970;SDS011;5026;51.494;11.974;2023-04-29T08:41:36;13.20;;;8.55;;
9970;SDS011;5026;51.494;11.974;2023-04-29T08:44:03;13.38;;;8.90;;
9970;SDS011;5026;51.494;11.974;2023-04-29T08:46:31;10.73;;;7.68;;
9970;SDS011;5026;51.494;11.974;2023-04-29T08:48:58;13.15;;;7.78;;
9970;SDS011;5026;51.494;11.974;2023-04-29T08:51:29;12.32;;;8.35;;
9970;SDS011;5026;51.494;11.974;2023-04-29T08:53:57;12.32;;;8.52;;
9970;SDS011;5026;51.494;11.974;2023-04-29T08:56:24;11.27;;;8.10;;
9970;SDS011;5026;51.494;11.974;2023-04-29T08:58:52;11.93;;;8.48;;
9970;SDS011;5026;51.494;11.974;2023-04-29T09:01:23;11.23;;;7.90;;
9970;SDS011;5026;51.494;11.974;2023-04-29T09:03:53;10.30;;;7.60;;
9970;SDS011;5026;51.494;11.974;2023-04-29T09:06:31;11.85;;;7.68;;
9970;SDS011;5026;51.494;11.974;2023-04-29T09:08:58;10.98;;;7.65;;
9970;SDS011;5026;51.494;11.974;2023-04-29T09:11:27;9.80;;;7.57;;
9970;SDS011;5026;51.494;11.974;2023-04-29T09:13:57;10.90;;;7.40;;
9970;SDS011;5026;51.494;11.974;2023-04-29T09:16:25;10.25;;;7.63;;
9970;SDS011;5026;51.494;11.974;2023-04-29T09:18:52;11.05;;;8.02;;
9970;SDS011;5026;51.494;11.974;2023-04-29T09:21:21;10.55;;;7.60;;
9970;SDS011;5026;51.494;11.974;2023-04-29T09:23:51;11.57;;;8.63;;
9970;SDS011;5026;51.494;11.974;2023-04-29T09:26:19;11.27;;;8.25;;
9970;SDS011;5026;51.494;11.974;2023-04-29T09:28:51;14.73;;;9.25;;
9970;SDS011;5026;51.494;11.974;2023-04-29T09:31:32;12.80;;;9.05;;
9970;SDS011;5026;51.494;11.974;2023-04-29T09:34:00;11.63;;;7.97;;
9970;SDS011;5026;51.494;11.974;2023-04-29T09:36:36;10.80;;;7.95;;
9970;SDS011;5026;51.494;11.974;2023-04-29T09:39:06;14.07;;;8.13;;
9970;SDS011;5026;51.494;11.974;2023-04-29T09:44:27;11.18;;;7.03;;
9970;SDS011;5026;51.494;11.974;2023-04-29T09:46:55;10.05;;;6.70;;
9970;SDS011;5026;51.494;11.974;2023-04-29T09:49:24;9.55;;;6.10;;
9970;SDS011;5026;51.494;11.974;2023-04-29T09:51:52;7.50;;;5.93;;
9970;SDS011;5026;51.494;11.974;2023-04-29T09:54:22;7.07;;;6.00;;
9970;SDS011;5026;51.494;11.974;2023-04-29T09:56:51;7.97;;;5.82;;
9970;SDS011;5026;51.494;11.974;2023-04-29T09:59:18;7.28;;;6.15;;
9970;SDS011;5026;51.494;11.974;2023-04-29T10:01:47;6.80;;;5.82;;
9970;SDS011;5026;51.494;11.974;2023-04-29T10:04:15;8.95;;;6.00;;
9970;SDS011;5026;51.494;11.974;2023-04-29T10:06:44;7.75;;;5.63;;
9970;SDS011;5026;51.494;11.974;2023-04-29T10:09:14;9.70;;;5.90;;
9970;SDS011;5026;51.494;11.974;2023-04-29T10:11:43;7.88;;;6.13;;
9970;SDS011;5026;51.494;11.974;2023-04-29T10:14:11;6.97;;;6.07;;
9970;SDS011;5026;51.494;11.974;2023-04-29T10:16:44;6.88;;;5.75;;
9970;SDS011;5026;51.494;11.974;2023-04-29T10:19:14;9.65;;;6.28;;
9970;SDS011;5026;51.494;11.974;2023-04-29T10:21:44;8.57;;;7.03;;
9970;SDS011;5026;51.494;11.974;2023-04-29T10:24:14;8.55;;;6.85;;
9970;SDS011;5026;51.494;11.974;2023-04-29T10:26:45;11.38;;;7.88;;
9970;SDS011;5026;51.494;11.974;2023-04-29T10:29:15;11.82;;;7.88;;
9970;SDS011;5026;51.494;11.974;2023-04-29T10:31:43;11.13;;;7.95;;
9970;SDS011;5026;51.494;11.974;2023-04-29T10:34:15;10.52;;;7.85;;
9970;SDS011;5026;51.494;11.974;2023-04-29T10:36:43;9.13;;;7.47;;
9970;SDS011;5026;51.494;11.974;2023-04-29T10:39:12;10.00;;;7.95;;
9970;SDS011;5026;51.494;11.974;2023-04-29T10:41:47;11.43;;;8.55;;
9970;SDS011;5026;51.494;11.974;2023-04-29T10:44:16;16.08;;;9.38;;
9970;SDS011;5026;51.494;11.974;2023-04-29T10:46:43;15.30;;;10.30;;
9970;SDS011;5026;51.494;11.974;2023-04-29T10:49:10;12.70;;;9.57;;
9970;SDS011;5026;51.494;11.974;2023-04-29T10:51:38;13.85;;;10.32;;
9970;SDS011;5026;51.494;11.974;2023-04-29T10:54:07;13.50;;;10.25;;
9970;SDS011;5026;51.494;11.974;2023-04-29T10:56:39;15.32;;;10.75;;
9970;SDS011;5026;51.494;11.974;2023-04-29T10:59:13;17.05;;;11.63;;
9970;SDS011;5026;51.494;11.974;2023-04-29T11:01:48;15.50;;;10.98;;
9970;SDS011;5026;51.494;11.974;2023-04-29T11:04:16;16.48;;;10.75;;
9970;SDS011;5026;51.494;11.974;2023-04-29T11:06:44;15.90;;;11.02;;
9970;SDS011;5026;51.494;11.974;2023-04-29T11:09:13;16.15;;;11.55;;
9970;SDS011;5026;51.494;11.974;2023-04-29T11:11:52;11.35;;;10.02;;
9970;SDS011;5026;51.494;11.974;2023-04-29T11:14:25;14.88;;;10.75;;
9970;SDS011;5026;51.494;11.974;2023-04-29T11:16:55;17.42;;;11.60;;
9970;SDS011;5026;51.494;11.974;2023-04-29T11:19:24;14.27;;;11.10;;
9970;SDS011;5026;51.494;11.974;2023-04-29T11:22:08;15.40;;;10.77;;
9970;SDS011;5026;51.494;11.974;2023-04-29T11:24:47;13.80;;;10.75;;
9970;SDS011;5026;51.494;11.974;2023-04-29T11:27:18;15.60;;;11.05;;
9970;SDS011;5026;51.494;11.974;2023-04-29T11:29:50;13.88;;;10.52;;
9970;SDS011;5026;51.494;11.974;2023-04-29T11:32:22;13.35;;;11.07;;
9970;SDS011;5026;51.494;11.974;2023-04-29T11:34:49;11.00;;;9.52;;
9970;SDS011;5026;51.494;11.974;2023-04-29T11:37:20;16.27;;;11.25;;
9970;SDS011;5026;51.494;11.974;2023-04-29T11:39:48;15.93;;;10.27;;
9970;SDS011;5026;51.494;11.974;2023-04-29T11:42:19;13.85;;;10.63;;
9970;SDS011;5026;51.494;11.974;2023-04-29T11:44:51;13.48;;;9.80;;
9970;SDS011;5026;51.494;11.974;2023-04-29T11:47:18;13.30;;;10.00;;
9970;SDS011;5026;51.494;11.974;2023-04-29T11:49:46;13.75;;;10.30;;
9970;SDS011;5026;51.494;11.974;2023-04-29T11:52:13;13.07;;;9.32;;
9970;SDS011;5026;51.494;11.974;2023-04-29T11:54:41;13.57;;;9.55;;
9970;SDS011;5026;51.494;11.974;2023-04-29T11:57:09;13.00;;;9.38;;
9970;SDS011;5026;51.494;11.974;2023-04-29T11:59:36;12.73;;;9.80;;
9970;SDS011;5026;51.494;11.974;2023-04-29T12:02:04;12.52;;;9.40;;
9970;SDS011;5026;51.494;11.974;2023-04-29T12:04:32;12.82;;;9.82;;
9970;SDS011;5026;51.494;11.974;2023-04-29T12:07:01;12.73;;;9.82;;
9970;SDS011;5026;51.494;11.974;2023-04-29T12:09:29;11.98;;;9.82;;
9970;SDS011;5026;51.494;11.974;2023-04-29T12:12:07;14.50;;;10.13;;
9970;SDS011;5026;51.494;11.974;2023-04-29T12:14:34;11.38;;;8.98;;
9970;SDS011;5026;51.494;11.974;2023-04-29T12:17:01;10.30;;;8.75;;
9970;SDS011;5026;51.494;11.974;2023-04-29T12:19:30;11.05;;;8.63;;
9970;SDS011;5026;51.494;11.974;2023-04-29T12:21:58;12.27;;;9.27;;
9970;SDS011;5026;51.494;11.974;2023-04-29T12:24:24;12.07;;;9.38;;
9970;SDS011;5026;51.494;11.974;2023-04-29T12:26:51;10.85;;;8.95;;
9970;SDS011;5026;51.494;11.974;2023-04-29T12:29:20;11.80;;;9.65;;
9970;SDS011;5026;51.494;11.974;2023-04-29T12:31:48;14.00;;;9.15;;
9970;SDS011;5026;51.494;11.974;2023-04-29T12:34:23;13.38;;;8.80;;
9970;SDS011;5026;51.494;11.974;2023-04-29T12:36:50;13.38;;;9.73;;
9970;SDS011;5026;51.494;11.974;2023-04-29T12:39:19;15.07;;;9.20;;
9970;SDS011;5026;51.494;11.974;2023-04-29T12:41:46;11.30;;;8.73;;
9970;SDS011;5026;51.494;11.974;2023-04-29T12:44:13;11.48;;;8.57;;
9970;SDS011;5026;51.494;11.974;2023-04-29T12:46:41;11.18;;;8.25;;
9970;SDS011;5026;51.494;11.974;2023-04-29T12:49:08;11.65;;;9.07;;
9970;SDS011;5026;51.494;11.974;2023-04-29T12:51:37;12.35;;;8.57;;
9970;SDS011;5026;51.494;11.974;2023-04-29T12:54:04;12.70;;;8.82;;
9970;SDS011;5026;51.494;11.974;2023-04-29T12:56:32;10.68;;;8.70;;
9970;SDS011;5026;51.494;11.974;2023-04-29T12:59:03;12.02;;;9.00;;
9970;SDS011;5026;51.494;11.974;2023-04-29T13:01:31;13.98;;;9.93;;
9970;SDS011;5026;51.494;11.974;2023-04-29T13:03:58;12.88;;;8.55;;
9970;SDS011;5026;51.494;11.974;2023-04-29T13:06:25;11.57;;;8.52;;
9970;SDS011;5026;51.494;11.974;2023-04-29T13:08:53;14.48;;;8.93;;
9970;SDS011;5026;51.494;11.974;2023-04-29T13:11:20;12.73;;;9.85;;
9970;SDS011;5026;51.494;11.974;2023-04-29T13:13:47;11.55;;;8.65;;
9970;SDS011;5026;51.494;11.974;2023-04-29T13:16:14;12.40;;;8.45;;
9970;SDS011;5026;51.494;11.974;2023-04-29T13:18:42;13.95;;;8.77;;
9970;SDS011;5026;51.494;11.974;2023-04-29T13:21:09;10.02;;;8.32;;
9970;SDS011;5026;51.494;11.974;2023-04-29T13:23:35;9.88;;;8.35;;
9970;SDS011;5026;51.494;11.974;2023-04-29T13:26:04;10.40;;;8.00;;
9970;SDS011;5026;51.494;11.974;2023-04-29T13:28:32;9.95;;;7.57;;
9970;SDS011;5026;51.494;11.974;2023-04-29T13:30:59;10.00;;;8.20;;
9970;SDS011;5026;51.494;11.974;2023-04-29T13:33:26;10.40;;;8.60;;
9970;SDS011;5026;51.494;11.974;2023-04-29T13:35:53;10.93;;;7.97;;
9970;SDS011;5026;51.494;11.974;2023-04-29T13:38:20;9.40;;;7.07;;
9970;SDS011;5026;51.494;11.974;2023-04-29T13:40:47;8.63;;;6.28;;
9970;SDS011;5026;51.494;11.974;2023-04-29T13:43:15;7.38;;;6.22;;
9970;SDS011;5026;51.494;11.974;2023-04-29T13:45:42;7.18;;;5.95;;
9970;SDS011;5026;51.494;11.974;2023-04-29T13:48:09;6.93;;;5.80;;
9970;SDS011;5026;51.494;11.974;2023-04-29T13:50:36;7.88;;;5.68;;
9970;SDS011;5026;51.494;11.974;2023-04-29T13:53:05;5.75;;;5.13;;
9970;SDS011;5026;51.494;11.974;2023-04-29T13:55:32;6.30;;;5.70;;
9970;SDS011;5026;51.494;11.974;2023-04-29T13:57:59;6.78;;;5.72;;
9970;SDS011;5026;51.494;11.974;2023-04-29T14:00:27;6.15;;;5.55;;
9970;SDS011;5026;51.494;11.974;2023-04-29T14:02:54;8.52;;;6.40;;
9970;SDS011;5026;51.494;11.974;2023-04-29T14:05:21;7.32;;;6.38;;
9970;SDS011;5026;51.494;11.974;2023-04-29T14:07:48;8.32;;;6.13;;
9970;SDS011;5026;51.494;11.974;2023-04-29T14:10:15;8.30;;;6.28;;
9970;SDS011;5026;51.494;11.974;2023-04-29T14:12:42;8.07;;;6.10;;
9970;SDS011;5026;51.494;11.974;2023-04-29T14:15:10;7.72;;;6.68;;
9970;SDS011;5026;51.494;11.974;2023-04-29T14:17:39;8.63;;;7.15;;
9970;SDS011;5026;51.494;11.974;2023-04-29T14:20:06;12.43;;;6.80;;
9970;SDS011;5026;51.494;11.974;2023-04-29T14:22:33;9.40;;;7.38;;
9970;SDS011;5026;51.494;11.974;2023-04-29T14:25:00;8.57;;;7.05;;
9970;SDS011;5026;51.494;11.974;2023-04-29T14:27:27;8.57;;;6.65;;
9970;SDS011;5026;51.494;11.974;2023-04-29T14:29:54;8.65;;;6.10;;
9970;SDS011;5026;51.494;11.974;2023-04-29T14:32:21;9.02;;;5.88;;
9970;SDS011;5026;51.494;11.974;2023-04-29T14:34:49;9.27;;;6.03;;
9970;SDS011;5026;51.494;11.974;2023-04-29T14:37:16;7.63;;;6.00;;
9970;SDS011;5026;51.494;11.974;2023-04-29T14:39:43;10.80;;;5.82;;
9970;SDS011;5026;51.494;11.974;2023-04-29T14:42:10;8.65;;;5.93;;
9970;SDS011;5026;51.494;11.974;2023-04-29T14:44:39;7.20;;;5.57;;
9970;SDS011;5026;51.494;11.974;2023-04-29T14:47:06;7.28;;;5.78;;
9970;SDS011;5026;51.494;11.974;2023-04-29T14:49:33;10.15;;;6.65;;
9970;SDS011;5026;51.494;11.974;2023-04-29T14:52:02;9.48;;;6.45;;